Latest Weather Observations for Kununurra Airport

IDW60801

Issued at 11:03 pm WST Friday 24 January 2020 (issued every 10 minutes, with the page automatically refreshed every 10 minutes)

About weather observations | Map of weather stations | Latest weather observations for WA | Other Formats
Station Details ID: 002056 Name: KUNUNURRA AERO Lat: -15.78 Lon: 128.71 Height: 44.0 m
Data from the previous 72 hours. | See also: Recent months at Kununurra Airport
Date/Time
WST
Temp
°C
App
Temp
°C
Dew
Point
°C
Rel
Hum
%
Delta-T
°C
Wind Press
QNH
hPa
Press
MSL
hPa
Rain since
9am
mm
Dir  Spd
km/h
Gust
km/h
Spd
kts
Gust
kts
24/11:00pm 29.0 34.4 26.6 87 1.7 N 11 13 6 7 1007.7 1007.4 0.2
24/10:30pm 29.2 34.3 26.2 84 2.1 NNE 11 15 6 8 1007.8 1007.5 0.2
24/10:00pm 29.0 34.4 26.0 84 2.1 NE 9 11 5 6 1008.0 1007.7 0.2
24/09:30pm 28.9 34.5 26.3 86 1.9 NNE 9 11 5 6 1008.0 1007.7 0.2
24/09:00pm 29.3 36.7 26.5 85 2.0 CALM 0 0 0 0 1007.7 1007.4 0.2
24/08:30pm 29.2 34.9 25.6 81 2.5 NNW 6 9 3 5 1007.5 1007.2 0.2
24/08:00pm 29.6 36.1 26.8 85 2.0 NE 6 7 3 4 1007.1 1006.8 0.2
24/07:30pm 29.9 35.4 25.6 78 3.0 N 7 9 4 5 1007.0 1006.7 0.2
24/07:00pm 30.7 35.8 24.6 70 4.3 WNW 6 7 3 4 1006.9 1006.6 0.2
24/06:30pm 31.0 36.3 24.9 70 4.3 SW 6 7 3 4 1006.5 1006.2 0.2
24/06:00pm 31.3 35.6 24.2 66 5.0 SW 9 11 5 6 1005.9 1005.6 0.2
24/05:30pm 31.8 35.9 23.9 63 5.5 WSW 9 11 5 6 1005.5 1005.2 0.2
24/05:00pm 32.2 36.9 24.3 63 5.5 WSW 7 11 4 6 1005.0 1004.7 0.2
24/04:30pm 32.8 37.3 24.0 60 6.2 WSW 7 11 4 6 1004.8 1004.5 0.2
24/04:00pm 33.4 37.9 24.0 58 6.6 SSW 7 9 4 5 1004.8 1004.5 0.2
24/03:30pm 34.5 38.7 23.2 51 7.8 WSW 6 9 3 5 1004.8 1004.5 0.2
24/03:00pm 34.2 39.2 23.2 52 7.7 WNW 2 9 1 5 1005.0 1004.7 0.2
24/02:30pm 33.4 36.9 22.2 52 7.7 SE 7 9 4 5 1005.3 1005.0 0.2
24/02:00pm 32.8 37.5 24.3 61 6.0 SSE 7 9 4 5 1005.8 1005.5 0.2
24/01:30pm 32.5 36.6 24.5 62 5.6 SSE 11 13 6 7 1006.2 1005.9 0.2
24/01:00pm 33.6 38.2 24.2 58 6.6 SSW 7 13 4 7 1006.4 1006.1 0.2
24/12:30pm 32.8 37.2 23.4 57 6.5 S 6 9 3 5 1006.5 1006.2 0.2
24/12:00pm 32.3 36.8 24.6 64 5.4 SSW 9 9 5 5 1006.8 1006.5 0.2
24/11:30am 31.9 36.3 24.5 65 5.2 SW 9 11 5 6 1007.0 1006.7 0.2
24/11:00am 31.5 36.6 24.9 68 4.7 N 7 11 4 6 1007.1 1006.8 0.2
24/10:30am 30.9 35.8 24.3 68 4.6 NNW 6 11 3 6 1007.4 1007.1 0.2
24/10:00am 30.8 35.1 24.9 71 4.2 NNW 11 15 6 8 1007.6 1007.3 0.2
24/09:30am 30.2 35.1 24.6 72 3.9 NNW 7 11 4 6 1007.7 1007.4 0.0
24/09:00am 29.6 33.2 23.8 71 4.0 NW 11 15 6 8 1007.9 1007.6 13.6
24/08:30am 29.0 32.7 23.9 74 3.5 NW 11 17 6 9 1007.8 1007.5 13.6
24/08:00am 28.6 32.5 24.8 80 2.7 NW 13 19 7 10 1007.8 1007.5 13.6
24/07:30am 27.8 31.4 24.4 82 2.4 NW 13 15 7 8 1007.7 1007.4 13.6
24/07:00am 27.4 31.7 24.3 83 2.2 WNW 9 13 5 7 1007.7 1007.4 13.6
24/06:30am 26.7 30.2 24.2 86 1.7 NW 13 17 7 9 1007.6 1007.3 13.6
24/06:00am 26.1 30.7 24.1 89 1.4 NW 7 9 4 5 1007.7 1007.4 13.6
24/05:30am 26.1 30.1 23.8 87 1.6 W 9 13 5 7 1007.3 1007.0 13.6
24/05:00am 26.0 30.1 23.9 88 1.4 WSW 9 15 5 8 1006.8 1006.5 13.6
24/04:30am 25.6 31.3 24.4 93 0.8 WNW 2 9 1 5 1005.6 1005.3 13.6
24/04:00am 25.9 31.9 24.3 91 1.1 CALM 0 0 0 0 1005.3 1005.0 13.6
24/03:30am 25.6 29.7 24.0 91 1.1 W 9 13 5 7 1005.7 1005.4 13.6
24/03:00am 25.7 30.9 24.8 95 0.6 WSW 6 11 3 6 1006.3 1006.0 13.6
24/02:30am 25.5 31.1 24.3 93 0.8 WNW 2 6 1 3 1006.9 1006.6 13.4
24/02:00am 25.4 29.8 24.5 95 0.6 WNW 9 13 5 7 1006.6 1006.3 13.4
24/01:30am 25.2 28.1 24.5 96 0.5 NNW 17 22 9 12 1006.9 1006.6 12.6
24/01:00am 25.1 28.7 24.4 96 0.5 NW 13 17 7 9 1007.1 1006.8 12.0
24/12:52am 25.0 27.6 24.0 94 0.7 WNW 17 20 9 11 1007.4 1007.1 12.0
24/12:31am 25.1 26.9 23.5 91 1.1 SW 20 26 11 14 1007.7 1007.4 10.6
24/12:30am 25.2 27.2 23.6 91 1.1 SW 19 26 10 14 1007.7 1007.4 10.4
24/12:00am 26.7 31.9 25.7 94 0.7 S 9 13 5 7 1008.0 1007.7 9.2
 
Date/Time
WST
Temp
°C
App
Temp
°C
Dew
Point
°C
Rel
Hum
%
Delta-T
°C
Wind Press
QNH
hPa
Press
MSL
hPa
Rain since
9am
mm
Dir  Spd
km/h
Gust
km/h
Spd
kts
Gust
kts
23/11:30pm 26.3 31.2 25.3 94 0.7 W 9 11 5 6 1008.3 1008.0 9.2
23/11:00pm 26.7 32.8 25.7 94 0.7 SW 4 11 2 6 1007.7 1007.4 8.8
23/10:30pm 26.9 32.2 25.3 91 1.1 S 7 9 4 5 1007.8 1007.5 8.8
23/10:00pm 26.4 30.1 24.6 90 1.3 NNE 13 17 7 9 1007.6 1007.3 8.8
23/09:30pm 26.8 31.7 25.2 91 1.1 NNW 9 11 5 6 1007.3 1007.0 8.4
23/09:00pm 26.7 32.0 25.3 92 1.0 E 7 9 4 5 1007.3 1007.0 8.0
23/08:30pm 26.7 31.4 24.0 85 1.9 N 6 15 3 8 1006.8 1006.5 8.0
23/08:00pm 27.1 29.7 24.6 86 1.7 NW 19 24 10 13 1006.7 1006.4 8.0
23/07:30pm 27.1 31.7 25.3 90 1.3 WSW 11 13 6 7 1006.6 1006.3 8.0
23/07:00pm 27.6 32.3 25.0 86 1.8 E 9 11 5 6 1006.2 1005.9 8.0
23/06:30pm 27.8 32.6 24.4 82 2.4 SSW 7 11 4 6 1004.9 1004.6 8.0
23/06:00pm 27.5 32.8 25.3 88 1.5 ESE 7 11 4 6 1003.7 1003.3 8.0
23/05:30pm 26.6 30.6 24.4 88 1.5 WNW 11 17 6 9 1002.8 1002.4 8.0
23/05:00pm 26.8 30.4 23.7 83 2.1 W 11 17 6 9 1003.6 1003.2 8.0
23/04:56pm 26.3 30.4 24.0 87 1.6 SW 9 13 5 7 1003.7 1003.3 8.0
23/04:30pm 26.0 25.0 23.7 87 1.6 SSE 35 54 19 29 1004.8 1004.5 3.2
23/04:29pm 26.1 25.0 23.4 85 1.8 SSE 35 54 19 29 1004.7 1004.4 2.6
23/04:26pm 25.9 25.0 23.2 85 1.8 SSE 33 50 18 27 1004.6 1004.3 1.6
23/04:10pm 29.9 28.4 22.1 63 5.3 SSW 33 57 18 31 1004.3 1004.0 0.0
23/04:06pm 31.0 31.2 22.0 58 6.1 SW 24 46 13 25 1004.1 1003.7 0.0
23/04:00pm 32.4 34.2 23.6 59 6.1 W 20 30 11 16 1002.9 1002.5 0.0
23/03:30pm 35.3 39.6 25.5 57 7.0 NNW 13 17 7 9 1002.2 1001.8 0.0
23/03:00pm 35.7 38.9 25.5 55 7.3 NNW 19 24 10 13 1001.8 1001.4 0.0
23/02:30pm 36.1 39.9 25.9 55 7.3 N 17 22 9 12 1002.5 1002.1 0.0
23/02:00pm 35.9 40.1 26.0 56 7.1 NNE 15 20 8 11 1003.3 1002.9 0.0
23/01:30pm 35.1 39.3 25.3 57 7.0 N 13 24 7 13 1003.8 1003.4 0.0
23/01:00pm 36.1 40.5 25.0 52 7.9 WNW 11 19 6 10 1004.4 1004.1 0.0
23/12:30pm 35.1 38.7 25.0 56 7.2 N 15 24 8 13 1004.9 1004.6 0.0
23/12:00pm 34.7 39.0 25.5 59 6.6 NW 13 19 7 10 1005.5 1005.2 0.0
23/11:30am 33.6 38.0 25.0 60 6.1 N 11 17 6 9 1006.0 1005.7 0.0
23/11:00am 33.0 36.7 24.5 61 6.0 NW 13 17 7 9 1006.5 1006.2 0.0
23/10:30am 32.3 37.2 24.3 62 5.6 NNW 6 15 3 8 1006.9 1006.6 0.0
23/10:00am 31.6 36.0 24.5 66 5.0 WNW 9 17 5 9 1007.3 1007.0 0.0
23/09:30am 31.1 35.2 24.5 68 4.6 NW 11 17 6 9 1007.4 1007.1 0.0
23/09:00am 30.2 34.1 23.6 67 4.6 WNW 9 13 5 7 1007.6 1007.3 0.0
23/08:30am 30.0 34.5 23.9 70 4.2 W 7 11 4 6 1007.6 1007.3 0.0
23/08:00am 29.8 34.1 23.3 68 4.5 WNW 6 9 3 5 1007.5 1007.2 0.0
23/07:30am 29.0 34.7 23.7 73 3.7 CALM 0 6 0 3 1007.3 1007.0 0.0
23/07:00am 28.4 32.2 23.5 75 3.4 WSW 9 11 5 6 1007.1 1006.8 0.0
23/06:30am 28.4 33.8 23.8 76 3.2 WSW 2 7 1 4 1006.9 1006.6 0.0
23/06:00am 27.4 33.0 24.8 86 1.8 WSW 4 7 2 4 1006.8 1006.5 0.0
23/05:30am 27.0 32.6 24.8 88 1.5 WSW 4 6 2 3 1006.4 1006.1 0.0
23/05:00am 26.8 31.8 24.5 87 1.6 NNW 6 7 3 4 1005.9 1005.6 0.0
23/04:30am 26.5 31.2 24.3 88 1.5 N 7 11 4 6 1005.5 1005.2 0.0
23/04:00am 27.0 31.9 24.3 85 1.9 W 6 9 3 5 1005.1 1004.8 0.0
23/03:30am 27.1 33.3 24.6 86 1.7 CALM 0 4 0 2 1005.0 1004.7 0.0
23/03:00am 27.3 31.6 24.2 83 2.2 SW 9 11 5 6 1005.4 1005.1 0.0
23/02:30am 26.8 31.1 24.3 86 1.7 SSW 9 13 5 7 1005.9 1005.6 0.0
23/02:00am 27.3 30.5 23.7 81 2.5 WNW 13 24 7 13 1005.9 1005.6 0.0
23/01:30am 26.4 29.5 24.2 88 1.5 NW 15 20 8 11 1005.5 1005.2 0.0
23/01:00am 26.7 28.6 23.8 84 2.0 WNW 20 30 11 16 1005.4 1005.1 0.0
23/12:30am 27.3 31.0 25.1 88 1.5 NW 15 22 8 12 1006.2 1005.9 0.0
23/12:00am 27.1 30.6 24.9 88 1.5 SSE 15 19 8 10 1007.1 1006.8 0.0
 
Date/Time
WST
Temp
°C
App
Temp
°C
Dew
Point
°C
Rel
Hum
%
Delta-T
°C
Wind Press
QNH
hPa
Press
MSL
hPa
Rain since
9am
mm
Dir  Spd
km/h
Gust
km/h
Spd
kts
Gust
kts
22/11:30pm 27.3 31.5 25.3 89 1.4 NW 13 17 7 9 1006.3 1006.0 0.0
22/11:00pm 27.6 32.6 24.8 85 2.0 NW 7 13 4 7 1007.0 1006.7 0.0
22/10:30pm 27.3 32.2 24.7 86 1.8 NE 7 9 4 5 1007.2 1006.9 0.0
22/10:00pm 27.6 32.5 24.6 84 2.1 NW 7 11 4 6 1007.5 1007.2 0.0
22/09:30pm 27.4 32.5 24.7 85 1.9 NNW 6 7 3 4 1007.2 1006.9 0.0
22/09:00pm 27.5 32.4 24.4 83 2.2 NW 6 9 3 5 1007.4 1007.1 0.0
22/08:30pm 27.9 33.7 24.5 82 2.4 NW 2 11 1 6 1006.7 1006.4 0.0
22/08:00pm 28.3 32.8 23.9 77 3.0 E 7 11 4 6 1006.5 1006.2 0.0
22/07:30pm 28.8 30.3 23.0 71 4.0 SE 20 32 11 17 1005.8 1005.5 0.0
22/07:00pm 30.8 32.1 24.0 67 4.7 ESE 24 33 13 18 1006.0 1005.7 0.0
22/06:30pm 31.4 36.9 24.0 65 5.2 ENE 2 13 1 7 1004.5 1004.2 0.0
22/06:00pm 33.0 38.4 24.5 61 6.0 NNW 4 6 2 3 1003.8 1003.4 0.0
22/05:30pm 33.4 35.9 22.5 52 7.5 WNW 13 19 7 10 1003.3 1002.9 0.0
22/05:00pm 34.0 40.3 24.8 58 6.5 CALM 0 9 0 5 1003.3 1002.9 0.0
22/04:30pm 34.8 39.0 24.1 53 7.5 NNW 9 11 5 6 1002.9 1002.5 0.0
22/04:00pm 36.9 38.9 23.0 44 9.7 WNW 17 28 9 15 1003.1 1002.7 0.0
22/03:30pm 36.9 38.3 21.1 40 10.8 W 15 24 8 13 1003.6 1003.2 0.0
22/03:00pm 36.6 39.2 22.7 44 9.7 W 13 20 7 11 1003.7 1003.3 0.0
22/02:30pm 36.1 37.2 21.9 43 9.7 W 19 26 10 14 1004.1 1003.7 0.0
22/02:00pm 35.9 38.2 23.5 48 8.7 W 17 24 9 13 1004.5 1004.2 0.0
22/01:30pm 35.5 37.2 21.7 44 9.4 SW 15 20 8 11 1005.1 1004.8 0.0
22/01:00pm 35.1 36.7 22.8 49 8.5 W 19 26 10 14 1005.7 1005.4 0.0
22/12:30pm 34.9 38.0 22.9 49 8.3 SSW 11 20 6 11 1006.2 1005.9 0.0
22/12:00pm 34.1 36.8 22.2 50 8.2 WSW 11 20 6 11 1006.6 1006.3 0.0
22/11:30am 33.6 36.1 22.4 52 7.7 SW 13 19 7 10 1007.2 1006.9 0.0
22/11:00am 32.9 35.1 23.2 56 6.7 WSW 17 26 9 14 1007.8 1007.5 0.0
22/10:30am 32.3 34.2 22.1 55 7.0 WSW 15 22 8 12 1008.2 1007.9 0.0
22/10:00am 32.1 34.5 23.6 60 5.9 WSW 17 22 9 12 1008.5 1008.2 0.0
22/09:30am 31.6 34.0 23.7 63 5.5 WSW 17 22 9 12 1008.6 1008.3 0.0
22/09:00am 30.6 32.5 22.7 62 5.4 SW 17 22 9 12 1008.5 1008.2 61.6
22/08:30am 30.1 32.5 23.0 65 4.9 W 15 20 8 11 1008.5 1008.2 61.6
22/08:00am 29.2 33.4 24.1 74 3.5 WSW 9 15 5 8 1008.6 1008.3 61.6
22/07:30am 28.1 32.3 24.1 79 2.8 SW 9 13 5 7 1008.5 1008.2 61.6
22/07:00am 27.3 30.9 23.7 81 2.5 SW 11 15 6 8 1008.4 1008.1 61.6
22/06:30am 26.2 29.8 23.1 83 2.1 WSW 9 13 5 7 1008.2 1007.9 61.6
22/06:00am 25.8 29.4 23.1 85 1.8 SW 9 11 5 6 1007.9 1007.6 61.6
22/05:30am 25.6 28.6 22.7 84 2.0 WSW 11 15 6 8 1007.5 1007.2 61.6
22/05:00am 24.9 28.5 23.1 90 1.2 W 9 11 5 6 1007.1 1006.8 61.6
22/04:30am 25.2 30.8 23.6 91 1.1 CALM 0 0 0 0 1006.8 1006.5 61.6
22/04:00am 25.0 30.5 24.0 94 0.7 SSW 2 9 1 5 1006.8 1006.5 61.6
22/03:30am 24.9 29.3 24.4 97 0.3 N 9 13 5 7 1006.7 1006.4 61.6
22/03:00am 24.7 30.8 24.4 98 0.2 CALM 0 0 0 0 1006.6 1006.3 61.6
22/02:30am 24.5 30.1 24.2 98 0.2 NNE 2 7 1 4 1006.6 1006.3 61.6
22/02:00am 24.4 29.2 24.1 98 0.2 W 6 7 3 4 1006.6 1006.3 61.6
22/01:30am 24.4 28.6 24.1 98 0.2 N 9 11 5 6 1006.4 1006.1 61.6
22/01:00am 24.2 27.9 23.9 98 0.2 N 11 13 6 7 1006.6 1006.3 61.6
22/12:30am 24.0 27.8 23.5 97 0.3 NNE 9 11 5 6 1006.7 1006.4 61.6
22/12:00am 24.2 28.5 23.7 97 0.3 NW 7 11 4 6 1007.4 1007.1 61.6
 
Date/Time
WST
Temp
°C
App
Temp
°C
Dew
Point
°C
Rel
Hum
%
Delta-T
°C
Wind Press
QNH
hPa
Press
MSL
hPa
Rain since
9am
mm
Dir  Spd
km/h
Gust
km/h
Spd
kts
Gust
kts
21/11:30pm 24.0 28.2 23.5 97 0.3 NW 7 11 4 6 1007.6 1007.3 61.6

Other formats

Comma delimited format used in spreadsheet applications
http://www.bom.gov.au/fwo/IDW60801/IDW60801.94216.axf

JavaScript Object Notation format (JSON) in row-major order
http://www.bom.gov.au/fwo/IDW60801/IDW60801.94216.json

Data quality

Most of these data are generated automatically and are frequently updated. Quality checks on data are not normally performed. It is possible for incorrect values to appear. Refer to information at About Latest Weather Observations and please check the disclaimer before using these data.